»·PEaware :: N5758Q KBOI-KSUN

N5758Q :: KBOI-KSUN

FLIGHT INFORMATION

Flight Status: Arrived
Operator: Privately registered:
United States
More flights under this callsign
Pilot: Carl S. (13490)
Aircraft: MOONEY M-20 201 202 205 220 ATS MSE
(M20P)
More flights by this aircraft type
Origin: KBOI Boise Air Terminal/Gowen
United States
Destination: KSUN Friedman Meml
United States
More flights between these airports :: More routes between these airports
Route: +BOI3 BOI V444 SOLDE PRESN
File this flight plan on PilotEdge
Remarks: APP RQST KSUN RNAV Y RWY31
Altitude:
(Current/Filed)
11,000ft
Speed:
(Current/Filed)
150kts
Departed: 30-Mar-18 07:34 PM
Arrived: 30-Mar-18 08:20 PM
Distance/Time
Traveled:
84nm/0:46
Distance/Time
To Go:
Arrived

Flight Plot

Page will automatically refresh every two minutes.

Flight plan parsing failed; only flown route is shown


Map Options




Map Legend


Flown Route
Filed Route
Departure Airport
Arrival Airport
Navaid (VOR, NDB)
Fix

Horizontal Profiles

Position Reports

Time Latitude Longitude Heading Altitude Ground
Speed
30-Mar-18 19:12 43.561963 -116.205647 191 2865ft 0kts
30-Mar-18 19:13 43.561963 -116.205647 191 2865ft 0kts
30-Mar-18 19:14 43.561963 -116.205647 191 2865ft 0kts
30-Mar-18 19:15 43.561963 -116.205647 191 2865ft 0kts
30-Mar-18 19:16 43.561963 -116.205647 191 2865ft 0kts
30-Mar-18 19:17 43.561963 -116.205647 191 2865ft 0kts
30-Mar-18 19:18 43.561963 -116.205647 191 2865ft 0kts
30-Mar-18 19:19 43.561963 -116.205647 191 2865ft 0kts
30-Mar-18 19:20 43.561963 -116.205647 191 2865ft 0kts
30-Mar-18 19:21 43.561963 -116.205647 191 2865ft 0kts
30-Mar-18 19:22 43.561213 -116.206805 296 2862ft 12kts
30-Mar-18 19:23 43.563025 -116.212177 295 2857ft 19kts
30-Mar-18 19:24 43.565580 -116.219679 294 2848ft 22kts
30-Mar-18 19:25 43.568223 -116.227383 295 2839ft 24kts
30-Mar-18 19:26 43.570242 -116.233315 292 2830ft 0kts
30-Mar-18 19:27 43.570858 -116.235887 202 2824ft 0kts
30-Mar-18 19:28 43.570858 -116.235887 202 2824ft 0kts
30-Mar-18 19:29 43.570858 -116.235887 202 2824ft 0kts
30-Mar-18 19:30 43.570858 -116.235887 202 2824ft 0kts
30-Mar-18 19:31 43.570858 -116.235887 202 2824ft 0kts
30-Mar-18 19:32 43.569936 -116.235790 119 2826ft 20kts
30-Mar-18 19:33 43.560136 -116.208363 113 3492ft 96kts
30-Mar-18 19:34 43.551327 -116.180268 108 4409ft 99kts
30-Mar-18 19:35 43.542349 -116.143826 101 5515ft 100kts
30-Mar-18 19:36 43.532452 -116.097656 91 6596ft 115kts
30-Mar-18 19:37 43.527139 -116.051213 104 7425ft 127kts
30-Mar-18 19:38 43.516376 -116.004132 92 8120ft 141kts
30-Mar-18 19:39 43.509892 -115.958174 106 8514ft 161kts
30-Mar-18 19:40 43.498945 -115.900395 99 9198ft 157kts
30-Mar-18 19:41 43.488823 -115.842283 108 9911ft 152kts
30-Mar-18 19:42 43.479032 -115.783892 96 10534ft 152kts
30-Mar-18 19:43 43.467610 -115.713677 106 10920ft 177kts
30-Mar-18 19:44 43.456263 -115.657561 97 11030ft 186kts
30-Mar-18 19:45 43.444942 -115.585758 102 11030ft 195kts
30-Mar-18 19:46 43.431017 -115.513248 104 11083ft 196kts
30-Mar-18 19:47 43.420109 -115.437150 98 10920ft 203kts
30-Mar-18 19:48 43.398241 -115.365791 114 10946ft 199kts
30-Mar-18 19:49 43.389802 -115.293159 91 10959ft 198kts
30-Mar-18 19:50 43.381910 -115.218491 103 11010ft 196kts
30-Mar-18 19:51 43.365008 -115.146111 105 10980ft 200kts
30-Mar-18 19:52 43.352098 -115.073392 101 11050ft 198kts
30-Mar-18 19:53 43.336785 -115.001008 109 11094ft 198kts
30-Mar-18 19:54 43.322919 -114.927766 107 11130ft 198kts
30-Mar-18 19:55 43.307791 -114.855190 98 11065ft 202kts
30-Mar-18 19:56 43.297761 -114.780014 102 11038ft 203kts
30-Mar-18 19:57 43.282247 -114.706370 108 11070ft 201kts
30-Mar-18 19:58 43.267633 -114.631652 106 11041ft 202kts
30-Mar-18 19:59 43.252448 -114.558004 101 11073ft 200kts
30-Mar-18 20:00 43.240625 -114.485455 108 11126ft 189kts
30-Mar-18 20:01 43.221890 -114.419896 108 10981ft 181kts
30-Mar-18 20:02 43.216959 -114.354516 84 11006ft 173kts
30-Mar-18 20:03 43.200248 -114.298427 171 10780ft 163kts
30-Mar-18 20:04 43.159872 -114.301032 210 10363ft 143kts
30-Mar-18 20:05 43.122847 -114.320768 204 9870ft 144kts
30-Mar-18 20:06 43.089403 -114.344487 253 9345ft 129kts
30-Mar-18 20:07 43.109053 -114.371714 15 8923ft 151kts
30-Mar-18 20:08 43.146717 -114.338988 34 8833ft 178kts
30-Mar-18 20:09 43.190330 -114.306997 17 8804ft 178kts
30-Mar-18 20:10 43.235987 -114.280496 22 8829ft 180kts
30-Mar-18 20:11 43.277891 -114.241745 31 8892ft 182kts
30-Mar-18 20:12 43.318450 -114.200979 29 8812ft 187kts
30-Mar-18 20:13 43.358178 -114.188223 324 8710ft 134kts
30-Mar-18 20:14 43.389189 -114.213977 325 8273ft 127kts
30-Mar-18 20:15 43.421159 -114.231740 338 7634ft 112kts
30-Mar-18 20:16 43.446386 -114.251334 321 6731ft 102kts
30-Mar-18 20:17 43.470761 -114.266718 333 5899ft 88kts
30-Mar-18 20:18 43.489671 -114.281865 324 5476ft 73kts
30-Mar-18 20:19 43.502767 -114.294543 330 5280ft 24kts
30-Mar-18 20:20 43.503621 -114.296707 235 5285ft 0kts

Navigation Log

Ident Type
Flight plan parsing failed, navigation log unavailable